Danville, KY

9:39 PM EDT on September 02, 2014 (GMT -0400)
Richmond | Change Station
CLOSE
Current Station
Airport
Location: Richmond,
Elevation: 1001 ft
Nearby Weather Stations

Elev 1001 ft 37.63 °N, 84.33 °W | Updated 24 minutes ago

Scattered Clouds
Scattered Clouds
72 °F
Feels Like 72 °F
N
0
Wind Variable Wind from North

Today
High -- | Low -- °F
--% Chance of Precip.
Yesterday
High -- | Low -- °F
Precip. -- in
7:10 AM 8:06 PM
First Quarter, 57% visible
Pressure 30.01 in
Visibility 10.0 miles
Clouds Scattered Clouds 4800 ft
Dew Point 68 °F
Humidity 88%
Rainfall 0.00 in
Snow Depth Not available.
UV 0 out of 12
Pollen 10.20 out of 12
Air Quality Not available.
Flu Activity Not available.
METAR KI39 030115Z AUTO 00000KT 10SM SCT048 22/20 A3001 RMK AO2

More Conditions Fewer Conditions

Pressure 30.01 in
Visibility 10.0 miles
Clouds Scattered Clouds 4800 ft
Dew Point 68 °F
Humidity 88%
Rainfall 0.00 in
Snow Depth Not available.
UV 0 out of 12
Pollen 10.20 out of 12
Air Quality Not available.
Flu Activity Not available.
METAR KI39 030115Z AUTO 00000KT 10SM SCT048 22/20 A3001 RMK AO2

More Conditions Fewer Conditions

10-Day Weather Forecast

Almanac

Astronomy

Sep. 02, 2014 Rise Set
Actual Time 7:10 AM EDT 8:06 PM EDT
Civil Twilight 6:43 AM EDT 8:33 PM EDT
Nautical Twilight 6:11 AM EDT 9:05 PM EDT
Astronomical Twilight 5:38 AM EDT 9:37 PM EDT
Moon 2:45 PM EDT (9/2) 12:16 AM EDT (9/2)
Length of Visible Light 13h 50m
Length of Day
12h 56m
Tomorrow will be 2m 20s shorter.
First Quarter, 57% of the Moon is Illuminated
Today
First Quarter
Sep 8
Full
Sep 15
Last Quarter
Sep 24
New
Oct 1
First Quarter

Today's Extremes

State Highs State Lows

Community

WunderPhotos

Upload Photos

1,749,829 photos uploaded!

Nearby

Snow Depth

Station Depth Elevation
No new snow has been reported.

Earthquake Activity

City Distance Mag. Time & Date
No recent earthquake activity has been reported nearby.
Minimum magnitude displayed is 2.5.

Coastal Water Temperatures

Place Temperature
No Stations Reporting

Nearby Weather Stations